Yokosuka Fwf, Japan

7:57 PM JST on March 05, 2015 (GMT +0900)
Totsukaku-Kashiodai | Change Station
CLOSE
Current Station
Personal Weather Station
Location: 横浜市, 神奈川県
Elevation: 112 ft
Nearby Weather Stations

Elev 112 ft 35.42 °N, 139.56 °E | Updated 7 seconds ago

Clear
Clear
49.5 °F
Feels Like 47 °F
N
5.6
Wind Variable Wind from SSE
Gusts 7.4 mph

Today
High -- | Low -- °F
--% Chance of Precip.
Yesterday
High -- | Low -- °F
Precip. -- in
6:06 AM 5:39 PM
Full, 100% visible
Pressure 30.09 in
Visibility -9999.0 miles
Clouds
Windchill 47 °F
Dew Point 13 °F
Humidity 23%
Rainfall in
Snow Depth Not available.
UV Not available.
Pollen Not available.
Air Quality Not available.
Flu Activity Not available.
METAR RJTT 051030Z 33007KT 300V360 CAVOK 09/M07 Q1019 BECMG 05010KT RMK A3009

More Conditions Fewer Conditions

Pressure 30.09 in
Visibility -9999.0 miles
Clouds
Windchill 47 °F
Dew Point 13 °F
Humidity 23%
Rainfall in
Snow Depth Not available.
UV Not available.
Pollen Not available.
Air Quality Not available.
Flu Activity Not available.
METAR RJTT 051030Z 33007KT 300V360 CAVOK 09/M07 Q1019 BECMG 05010KT RMK A3009

More Conditions Fewer Conditions

10-Day Weather Forecast

Almanac

Astronomy

Mar. 05, 2015 Rise Set
Actual Time
Civil Twilight
Nautical Twilight
Astronomical Twilight
Moon
Length of Visible Light
Length of Day
Tomorrow will be .
, % of the Moon is Illuminated

Today's Extremes

Country Highs Country Lows

Community

WunderPhotos

Upload Photos

1,802,714 photos uploaded!

WunderBlogs® & News

Nearby

Air Quality

  Air Quality AQ Index Pollutant
Not available.

Snow Depth

Station Depth Elevation

Earthquake Activity

City Distance Mag. Time & Date
Minimum magnitude displayed is 2.5.

Coastal Water Temperatures

Place Temperature

Nearby Weather Stations